createdAt,value
2018-09-18T00:01:44.194Z,10.30
2018-09-18T00:04:12.837Z,10.30
2018-09-18T00:06:41.538Z,10.30
2018-09-18T00:09:11.101Z,10.30
2018-09-18T00:11:39.909Z,10.30
2018-09-18T00:14:08.561Z,10.30
2018-09-18T00:16:37.232Z,10.30
2018-09-18T00:19:06.189Z,10.30
2018-09-18T00:21:34.872Z,10.20
2018-09-18T00:24:03.545Z,10.20
2018-09-18T00:26:32.238Z,10.30
2018-09-18T00:29:00.958Z,10.20
2018-09-18T00:31:29.650Z,10.20
2018-09-18T00:33:58.405Z,10.10
2018-09-18T00:36:27.053Z,10.20
2018-09-18T00:38:55.730Z,10.10
2018-09-18T00:41:24.401Z,10.10
2018-09-18T00:43:53.073Z,10.00
2018-09-18T00:46:21.728Z,10.00
2018-09-18T00:48:50.426Z,10.00
2018-09-18T00:51:19.118Z,10.00
2018-09-18T00:53:47.850Z,10.00
2018-09-18T00:56:16.564Z,9.90
2018-09-18T00:58:45.237Z,9.90
2018-09-18T01:01:13.972Z,9.90
2018-09-18T01:03:42.760Z,9.90
2018-09-18T01:06:11.821Z,9.90
2018-09-18T01:08:40.769Z,9.90
2018-09-18T01:11:09.509Z,9.90
2018-09-18T01:13:38.179Z,10.00
2018-09-18T01:16:06.960Z,10.00
2018-09-18T01:18:40.543Z,10.00
2018-09-18T01:21:09.906Z,10.00
2018-09-18T01:23:38.702Z,10.00
2018-09-18T01:26:07.536Z,10.00
2018-09-18T01:28:36.746Z,10.00
2018-09-18T01:31:05.947Z,10.00
2018-09-18T01:33:35.000Z,10.00
2018-09-18T01:36:03.796Z,10.00
2018-09-18T01:38:32.514Z,10.00
2018-09-18T01:41:01.256Z,10.00
2018-09-18T01:43:29.962Z,10.00
2018-09-18T01:45:58.675Z,10.00
2018-09-18T01:48:27.379Z,10.00
2018-09-18T01:50:56.082Z,10.00
2018-09-18T01:53:24.818Z,10.00
2018-09-18T01:55:53.612Z,10.00
2018-09-18T01:58:22.283Z,10.00
2018-09-18T02:00:51.041Z,10.00
2018-09-18T02:03:19.745Z,10.00
2018-09-18T02:05:48.411Z,10.00
2018-09-18T02:08:17.118Z,10.00
2018-09-18T02:10:45.966Z,10.00
2018-09-18T02:13:14.669Z,10.00
2018-09-18T02:15:43.466Z,10.10
2018-09-18T02:18:12.183Z,10.10
2018-09-18T02:20:40.889Z,10.10
2018-09-18T02:23:09.528Z,10.10
2018-09-18T02:25:38.389Z,10.10
2018-09-18T02:28:07.062Z,10.10
2018-09-18T02:30:35.745Z,10.10
2018-09-18T02:33:04.437Z,10.10
2018-09-18T02:35:33.113Z,10.00
2018-09-18T02:38:01.872Z,10.00
2018-09-18T02:40:30.565Z,10.00
2018-09-18T02:42:59.272Z,10.00
2018-09-18T02:45:27.961Z,10.00
2018-09-18T02:47:57.004Z,9.90
2018-09-18T02:50:26.250Z,9.90
2018-09-18T02:52:54.902Z,9.90
2018-09-18T02:55:23.557Z,9.80
2018-09-18T02:57:52.286Z,9.80
2018-09-18T03:00:20.957Z,9.90
2018-09-18T03:02:49.570Z,9.80
2018-09-18T03:05:18.210Z,9.80
2018-09-18T03:07:46.864Z,9.80
2018-09-18T03:10:15.521Z,9.80
2018-09-18T03:12:44.139Z,9.80
2018-09-18T03:15:12.792Z,9.80
2018-09-18T03:17:41.414Z,9.80
2018-09-18T03:20:10.083Z,9.80
2018-09-18T03:22:38.710Z,9.80
2018-09-18T03:25:07.408Z,9.90
2018-09-18T03:27:36.022Z,9.90
2018-09-18T03:30:04.789Z,9.90
2018-09-18T03:32:33.443Z,9.90
2018-09-18T03:35:02.064Z,9.90
2018-09-18T03:37:30.720Z,9.90
2018-09-18T03:39:59.460Z,9.80
2018-09-18T03:42:28.240Z,9.80
2018-09-18T03:44:56.865Z,9.80
2018-09-18T03:47:25.561Z,9.80
2018-09-18T03:49:54.504Z,9.80
2018-09-18T03:52:23.195Z,9.80
2018-09-18T03:54:51.887Z,9.80
2018-09-18T03:57:20.576Z,9.80
2018-09-18T03:59:49.269Z,9.80
2018-09-18T04:02:17.878Z,9.80
2018-09-18T04:04:46.557Z,9.80
2018-09-18T04:07:15.213Z,9.80
2018-09-18T04:09:44.002Z,9.80
2018-09-18T04:12:12.637Z,9.80
2018-09-18T04:14:41.402Z,9.90
2018-09-18T04:17:10.032Z,9.90
2018-09-18T04:19:38.763Z,9.90
2018-09-18T04:22:07.388Z,10.00
2018-09-18T04:24:36.102Z,10.00
2018-09-18T04:27:04.737Z,10.00
2018-09-18T04:29:33.370Z,9.90
2018-09-18T04:32:02.030Z,9.90
2018-09-18T04:34:30.681Z,9.90
2018-09-18T04:36:59.361Z,9.90
2018-09-18T04:39:28.049Z,9.90
2018-09-18T04:41:56.691Z,9.90
2018-09-18T04:44:25.344Z,9.90
2018-09-18T04:46:54.019Z,9.90
2018-09-18T04:49:22.710Z,9.90
2018-09-18T04:51:51.387Z,9.90
2018-09-18T04:54:19.989Z,9.90
2018-09-18T04:56:48.659Z,9.90
2018-09-18T04:59:17.334Z,9.90
2018-09-18T05:01:46.065Z,9.90
2018-09-18T05:04:14.733Z,10.00
2018-09-18T05:06:43.608Z,10.00
2018-09-18T05:09:12.261Z,10.00
2018-09-18T05:11:41.083Z,10.00
2018-09-18T05:14:09.797Z,10.00
2018-09-18T05:16:38.479Z,10.00
2018-09-18T05:19:07.188Z,10.00
2018-09-18T05:21:35.969Z,10.00
2018-09-18T05:24:04.790Z,10.00
2018-09-18T05:26:33.463Z,10.00
2018-09-18T05:29:02.171Z,10.00
2018-09-18T05:31:30.816Z,10.10
2018-09-18T05:33:59.554Z,10.10
2018-09-18T05:36:28.205Z,10.10
2018-09-18T05:38:56.873Z,10.20
2018-09-18T05:41:25.524Z,10.20
2018-09-18T05:43:54.192Z,10.30
2018-09-18T05:46:22.841Z,10.40
2018-09-18T05:48:51.485Z,10.40
2018-09-18T05:51:20.154Z,10.50
2018-09-18T05:53:48.844Z,10.50
2018-09-18T05:56:17.496Z,10.60
2018-09-18T05:58:46.114Z,10.60
2018-09-18T06:01:14.839Z,10.80
2018-09-18T06:03:43.597Z,10.80
2018-09-18T06:06:12.226Z,10.90
2018-09-18T06:08:40.886Z,11.00
2018-09-18T06:11:09.509Z,11.20
2018-09-18T06:13:38.194Z,11.30
2018-09-18T06:16:06.835Z,11.40
2018-09-18T06:18:35.517Z,11.50
2018-09-18T06:21:04.263Z,11.70
2018-09-18T06:23:32.974Z,12.00
2018-09-18T06:26:01.680Z,12.40
2018-09-18T06:28:30.355Z,12.70
2018-09-18T06:30:59.016Z,12.90
2018-09-18T06:33:27.750Z,13.10
2018-09-18T06:35:56.560Z,13.30
2018-09-18T06:38:25.241Z,13.40
2018-09-18T06:40:53.943Z,13.60
2018-09-18T06:43:22.594Z,13.90
2018-09-18T06:45:51.316Z,14.20
2018-09-18T06:48:19.983Z,14.50
2018-09-18T06:50:48.657Z,14.70
2018-09-18T06:53:17.302Z,14.90
2018-09-18T06:55:46.057Z,15.20
2018-09-18T06:58:14.699Z,15.70
2018-09-18T07:00:43.314Z,16.20
2018-09-18T07:03:11.969Z,16.80
2018-09-18T07:05:40.711Z,17.40
2018-09-18T07:08:09.382Z,18.00
2018-09-18T07:10:38.018Z,18.80
2018-09-18T07:13:06.641Z,19.90
2018-09-18T07:15:35.313Z,21.10
2018-09-18T07:18:04.018Z,22.30
2018-09-18T07:20:32.648Z,23.20
2018-09-18T07:23:01.273Z,24.00
2018-09-18T07:25:29.943Z,24.90
2018-09-18T07:27:58.651Z,25.60
2018-09-18T07:30:27.338Z,26.20
2018-09-18T07:32:55.981Z,26.90
2018-09-18T07:35:24.657Z,27.60
2018-09-18T07:37:53.350Z,28.10
2018-09-18T07:40:22.018Z,28.60
2018-09-18T07:42:50.642Z,28.90
2018-09-18T07:45:19.301Z,29.30
2018-09-18T07:47:47.953Z,29.70
2018-09-18T07:50:16.569Z,30.10
2018-09-18T07:52:45.264Z,30.30
2018-09-18T07:55:13.914Z,30.70
2018-09-18T07:57:42.622Z,31.00
2018-09-18T08:00:11.350Z,30.70
2018-09-18T08:02:39.976Z,31.10
2018-09-18T08:05:08.644Z,31.50
2018-09-18T08:07:37.322Z,31.40
2018-09-18T08:10:06.586Z,31.80
2018-09-18T08:12:35.244Z,31.90
2018-09-18T08:15:03.987Z,32.10
2018-09-18T08:17:32.653Z,32.20
2018-09-18T08:20:01.341Z,32.10
2018-09-18T08:22:29.982Z,31.70
2018-09-18T08:24:58.684Z,32.00
2018-09-18T08:27:27.290Z,32.10
2018-09-18T08:29:55.948Z,32.10
2018-09-18T08:32:24.578Z,32.10
2018-09-18T08:34:53.274Z,32.30
2018-09-18T08:37:21.922Z,32.00
2018-09-18T08:39:50.580Z,32.40
2018-09-18T08:42:19.326Z,32.30
2018-09-18T08:44:47.958Z,32.40
2018-09-18T08:47:16.618Z,32.80
2018-09-18T08:49:45.266Z,32.60
2018-09-18T08:52:13.955Z,32.80
2018-09-18T08:54:42.571Z,33.00
2018-09-18T08:57:11.221Z,32.80
2018-09-18T08:59:39.859Z,33.30
2018-09-18T09:02:08.564Z,34.10
2018-09-18T09:04:37.256Z,32.90
2018-09-18T09:07:05.897Z,32.90
2018-09-18T09:09:34.604Z,33.00
2018-09-18T09:12:03.248Z,33.20
2018-09-18T09:14:32.108Z,33.30
2018-09-18T09:17:00.716Z,33.10
2018-09-18T09:19:29.392Z,32.90
2018-09-18T09:21:58.083Z,33.60
2018-09-18T09:24:26.663Z,34.50
2018-09-18T09:26:55.353Z,34.40
2018-09-18T09:29:23.974Z,34.50
2018-09-18T09:31:52.632Z,34.50
2018-09-18T09:34:21.275Z,34.40
2018-09-18T09:36:49.906Z,34.80
2018-09-18T09:39:18.582Z,34.60
2018-09-18T09:41:47.240Z,34.60
2018-09-18T09:44:15.908Z,34.60
2018-09-18T09:46:44.533Z,34.50
2018-09-18T09:49:13.260Z,34.10
2018-09-18T09:51:42.093Z,34.10
2018-09-18T09:54:10.749Z,33.80
2018-09-18T09:56:39.498Z,33.70
2018-09-18T09:59:08.177Z,33.90
2018-09-18T10:01:42.159Z,34.20
2018-09-18T10:04:10.930Z,34.10
2018-09-18T10:06:39.576Z,33.80
2018-09-18T10:09:10.904Z,33.30
2018-09-18T10:11:39.550Z,33.10
2018-09-18T10:14:10.026Z,33.20
2018-09-18T10:16:38.719Z,32.70
2018-09-18T10:19:07.461Z,32.50
2018-09-18T10:21:36.156Z,32.00
2018-09-18T10:24:04.922Z,31.80
2018-09-18T10:26:33.731Z,31.60
2018-09-18T10:29:02.354Z,31.50
2018-09-18T10:31:31.070Z,31.40
2018-09-18T10:33:59.764Z,31.40
2018-09-18T10:36:28.541Z,31.20
2018-09-18T10:38:57.909Z,31.00
2018-09-18T10:41:27.093Z,30.90
2018-09-18T10:43:55.905Z,30.80
2018-09-18T10:46:24.710Z,30.60
2018-09-18T10:48:56.378Z,30.50
2018-09-18T10:51:25.236Z,30.40
2018-09-18T10:53:54.319Z,30.20
2018-09-18T10:56:23.216Z,30.10
2018-09-18T10:58:52.030Z,30.20
2018-09-18T11:01:20.853Z,30.10
2018-09-18T11:03:49.612Z,30.10
2018-09-18T11:06:18.537Z,30.20
2018-09-18T11:08:47.303Z,30.10
2018-09-18T11:11:16.158Z,30.10
2018-09-18T11:13:44.880Z,30.10
2018-09-18T11:16:13.819Z,30.00
2018-09-18T11:18:42.722Z,29.90
2018-09-18T11:21:11.530Z,30.00
2018-09-18T11:23:40.247Z,29.90
2018-09-18T11:26:09.280Z,29.90
2018-09-18T11:28:38.017Z,29.80
2018-09-18T11:31:06.803Z,30.00
2018-09-18T11:33:35.958Z,29.90
2018-09-18T11:36:04.670Z,29.80
2018-09-18T11:38:33.445Z,29.90
2018-09-18T11:41:02.286Z,29.90
2018-09-18T11:43:31.125Z,29.90
2018-09-18T11:46:00.147Z,30.00
2018-09-18T11:48:28.711Z,30.00
2018-09-18T11:50:57.488Z,30.10
2018-09-18T11:53:26.234Z,29.90
2018-09-18T11:55:54.916Z,30.10
2018-09-18T11:58:23.886Z,30.10
2018-09-18T12:00:52.571Z,30.10
2018-09-18T12:03:21.501Z,30.10
2018-09-18T12:05:50.416Z,30.30
2018-09-18T12:08:19.214Z,30.40
2018-09-18T12:10:47.914Z,30.30
2018-09-18T12:13:16.860Z,30.20
2018-09-18T12:15:45.641Z,30.30
2018-09-18T12:18:14.343Z,30.30
2018-09-18T12:20:43.022Z,30.30
2018-09-18T12:23:11.731Z,30.30
2018-09-18T12:25:40.471Z,30.30
2018-09-18T12:28:09.194Z,30.30
2018-09-18T12:30:38.556Z,30.40
2018-09-18T12:33:07.242Z,30.60
2018-09-18T12:35:36.764Z,30.50
2018-09-18T12:38:06.754Z,30.60
2018-09-18T12:40:35.477Z,30.70
2018-09-18T12:43:04.418Z,30.60
2018-09-18T12:45:33.164Z,30.60
2018-09-18T12:48:02.237Z,30.70
2018-09-18T12:50:31.196Z,30.70
2018-09-18T12:52:59.825Z,30.70
2018-09-18T12:55:28.646Z,30.80
2018-09-18T12:57:57.367Z,30.80
2018-09-18T13:00:26.011Z,30.90
2018-09-18T13:02:54.693Z,31.00
2018-09-18T13:05:23.369Z,31.00
2018-09-18T13:07:52.107Z,31.10
2018-09-18T13:10:20.798Z,31.20
2018-09-18T13:12:49.514Z,31.10
2018-09-18T13:15:18.259Z,31.20
2018-09-18T13:17:46.939Z,31.30
2018-09-18T13:20:15.625Z,31.30
2018-09-18T13:22:44.286Z,31.20
2018-09-18T13:25:12.998Z,31.40
2018-09-18T13:27:41.675Z,31.50
2018-09-18T13:30:10.351Z,31.50
2018-09-18T13:32:39.025Z,31.50
2018-09-18T13:35:07.707Z,31.40
2018-09-18T13:37:36.340Z,31.40
2018-09-18T13:40:05.082Z,31.50
2018-09-18T13:42:33.707Z,31.50
2018-09-18T13:45:02.440Z,31.50
2018-09-18T13:47:31.153Z,31.60
2018-09-18T13:49:59.829Z,31.80
2018-09-18T13:52:28.539Z,31.80
2018-09-18T13:54:57.192Z,31.80
2018-09-18T13:57:25.933Z,31.80
2018-09-18T13:59:54.590Z,31.70
2018-09-18T14:02:23.392Z,31.60
2018-09-18T14:04:54.157Z,31.50
2018-09-18T14:07:22.710Z,31.50
2018-09-18T14:09:51.504Z,31.40
2018-09-18T14:12:20.162Z,31.30
2018-09-18T14:14:48.923Z,31.40
2018-09-18T14:17:17.466Z,31.30
2018-09-18T14:19:46.069Z,31.30
2018-09-18T14:22:14.713Z,31.40
2018-09-18T14:24:43.339Z,31.40
2018-09-18T14:27:12.079Z,31.40
2018-09-18T14:29:40.705Z,31.30
2018-09-18T14:32:09.432Z,31.30
2018-09-18T14:34:38.203Z,31.20
2018-09-18T14:37:06.910Z,31.20
2018-09-18T14:39:35.514Z,31.10
2018-09-18T14:42:04.183Z,31.10
2018-09-18T14:44:32.790Z,31.10
2018-09-18T14:47:01.440Z,31.00
2018-09-18T14:49:30.176Z,31.00
2018-09-18T14:51:58.834Z,31.00
2018-09-18T14:54:27.548Z,30.90
2018-09-18T14:56:56.173Z,30.90
2018-09-18T14:59:24.877Z,30.90
2018-09-18T15:01:53.596Z,30.90
2018-09-18T15:04:22.326Z,30.80
2018-09-18T15:06:51.009Z,30.80
2018-09-18T15:09:19.768Z,30.80
2018-09-18T15:11:48.471Z,30.90
2018-09-18T15:14:17.140Z,30.80
2018-09-18T15:16:45.873Z,30.70
2018-09-18T15:19:14.537Z,30.70
2018-09-18T15:21:43.280Z,30.70
2018-09-18T15:24:11.932Z,30.60
2018-09-18T15:26:40.611Z,30.50
2018-09-18T15:29:09.313Z,30.40
2018-09-18T15:31:37.967Z,30.30
2018-09-18T15:34:06.747Z,30.30
2018-09-18T15:36:35.420Z,30.20
2018-09-18T15:39:05.260Z,30.10
2018-09-18T15:41:33.908Z,30.00
2018-09-18T15:44:02.563Z,30.00
2018-09-18T15:46:31.217Z,29.90
2018-09-18T15:48:59.943Z,29.80
2018-09-18T15:51:28.625Z,29.80
2018-09-18T15:53:57.265Z,29.80
2018-09-18T15:56:25.994Z,29.70
2018-09-18T15:58:54.650Z,29.60
2018-09-18T16:01:23.396Z,29.60
2018-09-18T16:03:52.134Z,29.60
2018-09-18T16:06:20.755Z,29.50
2018-09-18T16:08:49.508Z,29.40
2018-09-18T16:11:18.227Z,29.30
2018-09-18T16:13:46.852Z,29.20
2018-09-18T16:16:15.532Z,29.20
2018-09-18T16:18:44.182Z,29.00
2018-09-18T16:21:12.843Z,28.90
2018-09-18T16:23:41.494Z,28.90
2018-09-18T16:26:10.421Z,28.90
2018-09-18T16:28:39.122Z,28.80
2018-09-18T16:31:07.741Z,28.70
2018-09-18T16:33:36.409Z,28.70
2018-09-18T16:36:05.173Z,28.60
2018-09-18T16:38:34.578Z,28.60
2018-09-18T16:41:03.242Z,28.50
2018-09-18T16:43:38.515Z,28.30
2018-09-18T16:46:07.153Z,28.20
2018-09-18T16:48:35.855Z,28.10
2018-09-18T16:51:04.496Z,28.10
2018-09-18T16:53:33.178Z,28.00
2018-09-18T16:56:01.893Z,27.90
2018-09-18T16:58:30.572Z,27.80
2018-09-18T17:00:59.190Z,27.70
2018-09-18T17:03:27.870Z,27.60
2018-09-18T17:05:56.533Z,27.60
2018-09-18T17:08:25.154Z,27.40
2018-09-18T17:10:53.838Z,27.20
2018-09-18T17:13:22.596Z,27.10
2018-09-18T17:15:51.155Z,27.00
2018-09-18T17:18:19.818Z,26.80
2018-09-18T17:20:48.555Z,26.60
2018-09-18T17:23:17.204Z,26.40
2018-09-18T17:25:45.941Z,26.30
2018-09-18T17:28:14.731Z,26.20
2018-09-18T17:30:43.553Z,26.10
2018-09-18T17:33:12.206Z,25.90
2018-09-18T17:35:41.007Z,25.70
2018-09-18T17:38:09.658Z,25.70
2018-09-18T17:40:38.317Z,25.70
2018-09-18T17:43:06.982Z,25.50
2018-09-18T17:45:35.625Z,25.50
2018-09-18T17:48:04.310Z,25.30
2018-09-18T17:50:33.075Z,25.30
2018-09-18T17:53:01.725Z,25.20
2018-09-18T17:55:30.455Z,25.20
2018-09-18T17:57:59.125Z,25.20
2018-09-18T18:00:27.792Z,25.10
2018-09-18T18:02:56.509Z,25.00
2018-09-18T18:05:25.236Z,25.00
2018-09-18T18:07:53.959Z,24.90
2018-09-18T18:10:22.761Z,24.90
2018-09-18T18:12:51.501Z,24.80
2018-09-18T18:15:20.175Z,24.70
2018-09-18T18:17:48.847Z,24.60
2018-09-18T18:20:17.528Z,24.50
2018-09-18T18:22:46.198Z,24.30
2018-09-18T18:25:14.903Z,24.20
2018-09-18T18:27:43.536Z,24.10
2018-09-18T18:30:12.203Z,24.00
2018-09-18T18:32:40.900Z,23.90
2018-09-18T18:35:09.560Z,23.70
2018-09-18T18:37:38.527Z,23.80
2018-09-18T18:40:07.343Z,23.80
2018-09-18T18:42:36.108Z,23.60
2018-09-18T18:45:05.048Z,23.70
2018-09-18T18:47:33.822Z,23.70
2018-09-18T18:50:02.533Z,23.70
2018-09-18T18:52:31.310Z,23.70
2018-09-18T18:55:00.059Z,23.60
2018-09-18T18:57:28.754Z,23.50
2018-09-18T18:59:57.568Z,23.50
2018-09-18T19:02:26.332Z,23.50
2018-09-18T19:04:55.134Z,23.40
2018-09-18T19:07:24.004Z,23.30
2018-09-18T19:09:52.801Z,23.20
2018-09-18T19:12:21.736Z,23.10
2018-09-18T19:14:50.543Z,23.00
2018-09-18T19:17:19.319Z,22.90
2018-09-18T19:19:48.017Z,22.80
2018-09-18T19:22:16.824Z,22.70
2018-09-18T19:24:45.534Z,22.70
2018-09-18T19:27:14.248Z,22.70
2018-09-18T19:29:42.887Z,22.60
2018-09-18T19:32:11.586Z,22.50
2018-09-18T19:34:40.208Z,22.50
2018-09-18T19:37:08.940Z,22.50
2018-09-18T19:39:37.595Z,22.30
2018-09-18T19:42:06.308Z,22.30
2018-09-18T19:44:35.008Z,22.20
2018-09-18T19:47:03.699Z,21.90
2018-09-18T19:49:32.389Z,21.80
2018-09-18T19:52:01.133Z,21.70
2018-09-18T19:54:29.735Z,21.50
2018-09-18T19:56:58.389Z,21.40
2018-09-18T19:59:27.015Z,21.30
2018-09-18T20:01:55.683Z,21.20
2018-09-18T20:04:24.362Z,21.20
2018-09-18T20:06:53.061Z,21.10
2018-09-18T20:09:21.743Z,21.00
2018-09-18T20:11:50.446Z,20.80
2018-09-18T20:14:19.072Z,20.80
2018-09-18T20:16:47.725Z,20.70
2018-09-18T20:19:17.246Z,20.60
2018-09-18T20:21:45.879Z,20.50
2018-09-18T20:24:14.601Z,20.40
2018-09-18T20:26:43.348Z,20.30
2018-09-18T20:29:12.014Z,20.10
2018-09-18T20:31:40.689Z,19.90
2018-09-18T20:34:09.408Z,19.70
2018-09-18T20:36:38.126Z,19.50
2018-09-18T20:39:08.756Z,19.40
2018-09-18T20:41:37.419Z,19.20
2018-09-18T20:44:06.157Z,19.20
2018-09-18T20:46:34.851Z,19.00
2018-09-18T20:49:03.557Z,19.00
2018-09-18T20:51:32.213Z,18.80
2018-09-18T20:54:00.927Z,18.70
2018-09-18T20:56:29.660Z,18.60
2018-09-18T20:58:58.355Z,18.50
2018-09-18T21:01:27.040Z,18.40
2018-09-18T21:03:55.764Z,18.30
2018-09-18T21:06:24.434Z,18.30
2018-09-18T21:08:53.068Z,18.20
2018-09-18T21:11:21.775Z,18.20
2018-09-18T21:13:50.470Z,18.10
2018-09-18T21:16:19.196Z,18.10
2018-09-18T21:18:47.868Z,18.00
2018-09-18T21:21:16.524Z,17.90
2018-09-18T21:23:45.225Z,17.60
2018-09-18T21:26:15.266Z,17.50
2018-09-18T21:28:44.021Z,17.30
2018-09-18T21:31:12.696Z,17.30
2018-09-18T21:33:41.318Z,17.20
2018-09-18T21:36:09.999Z,17.10
2018-09-18T21:38:38.636Z,17.00
2018-09-18T21:41:07.421Z,16.80
2018-09-18T21:43:36.106Z,16.70
2018-09-18T21:46:04.784Z,16.60
2018-09-18T21:48:33.527Z,16.50
2018-09-18T21:51:02.189Z,16.40
2018-09-18T21:53:30.894Z,16.20
2018-09-18T21:55:59.590Z,16.20
2018-09-18T21:58:28.303Z,16.10
2018-09-18T22:00:57.019Z,16.00
2018-09-18T22:03:25.710Z,16.00
2018-09-18T22:05:54.402Z,16.00
2018-09-18T22:08:23.150Z,16.00
2018-09-18T22:10:51.881Z,16.00
2018-09-18T22:13:20.538Z,16.00
2018-09-18T22:15:49.188Z,16.10
2018-09-18T22:18:17.907Z,15.90
2018-09-18T22:20:46.582Z,15.90
2018-09-18T22:23:15.281Z,15.80
2018-09-18T22:25:43.954Z,15.80
2018-09-18T22:28:12.666Z,15.90
2018-09-18T22:30:41.355Z,15.70
2018-09-18T22:33:09.996Z,15.60
2018-09-18T22:35:38.624Z,15.50
2018-09-18T22:38:07.364Z,15.40
2018-09-18T22:40:36.037Z,15.40
2018-09-18T22:43:04.689Z,15.30
2018-09-18T22:45:33.388Z,15.30
2018-09-18T22:48:02.062Z,15.20
2018-09-18T22:50:30.704Z,15.20
2018-09-18T22:52:59.391Z,15.10
2018-09-18T22:55:28.008Z,15.10
2018-09-18T22:57:56.725Z,15.00
2018-09-18T23:00:25.364Z,15.00
2018-09-18T23:02:54.000Z,15.10
2018-09-18T23:05:22.676Z,15.00
2018-09-18T23:07:51.341Z,15.10
2018-09-18T23:10:19.954Z,15.10
2018-09-18T23:12:48.655Z,15.10
2018-09-18T23:15:17.354Z,15.10
2018-09-18T23:17:49.012Z,15.00
2018-09-18T23:20:17.669Z,15.00
2018-09-18T23:22:46.446Z,15.00
2018-09-18T23:25:15.112Z,15.00
2018-09-18T23:27:43.787Z,14.90
2018-09-18T23:30:12.437Z,14.80
2018-09-18T23:32:41.121Z,14.80
2018-09-18T23:35:09.799Z,14.80
2018-09-18T23:37:38.454Z,14.70
2018-09-18T23:40:07.228Z,14.80
2018-09-18T23:42:35.895Z,14.80
2018-09-18T23:45:04.672Z,14.90
2018-09-18T23:47:33.343Z,15.20
2018-09-18T23:50:02.046Z,15.30
2018-09-18T23:52:30.724Z,15.20
2018-09-18T23:54:59.500Z,15.20
2018-09-18T23:57:28.222Z,15.20
2018-09-18T23:59:56.901Z,15.20
